Time;durP1;ratioP1;P1;durP2;ratioP2;P2;SDS_P1;SDS_P2;PMS_P1;PMS_P2;Temp;Humidity;BMP_temperature;BMP_pressure;BME280_temperature;BME280_humidity;BME280_pressure;Samples;Min_cycle;Max_cycle;Signal;HPM_P1;HPM_P2
2023/02/14 00:00:22;;;;;;;15.57;6.60;;;3.60;99.90;;;;;;4952804;28;20186;-89
2023/02/14 00:02:48;;;;;;;9.60;6.07;;;3.70;99.90;;;;;;4936584;29;20182;-88
2023/02/14 00:05:14;;;;;;;10.67;6.47;;;3.70;99.90;;;;;;4935923;29;20182;-88
2023/02/14 00:07:40;;;;;;;10.67;7.00;;;3.70;99.90;;;;;;4945850;29;20299;-89
2023/02/14 00:10:20;;;;;;;12.43;7.03;;;3.60;99.90;;;;;;4952543;29;20733;-88
2023/02/14 00:12:46;;;;;;;11.10;6.53;;;3.60;99.90;;;;;;4952907;29;20208;-88
2023/02/14 00:15:21;;;;;;;11.50;7.37;;;3.60;99.90;;;;;;4952617;28;20614;-88
2023/02/14 00:17:54;;;;;;;13.13;7.23;;;3.60;99.90;;;;;;4936316;29;20621;-88
2023/02/14 00:20:22;;;;;;;11.97;7.17;;;3.60;99.90;;;;;;4935985;29;20181;-88
2023/02/14 00:22:48;;;;;;;13.67;8.03;;;3.60;99.90;;;;;;4936691;29;20189;-90
2023/02/14 00:25:14;;;;;;;12.47;8.13;;;3.60;99.90;;;;;;4935971;29;20197;-91
2023/02/14 00:27:39;;;;;;;13.10;7.90;;;3.60;99.90;;;;;;4954573;29;20215;-91
2023/02/14 00:30:07;;;;;;;11.70;7.30;;;3.60;99.90;;;;;;4954650;29;20185;-91
2023/02/14 00:32:33;;;;;;;11.77;7.07;;;3.60;99.90;;;;;;4952666;28;20241;-90
2023/02/14 00:34:59;;;;;;;11.83;7.50;;;3.70;99.90;;;;;;4936206;29;20189;-91
2023/02/14 00:37:24;;;;;;;14.70;8.53;;;3.70;99.90;;;;;;4937042;29;20277;-92
2023/02/14 00:39:50;;;;;;;10.57;6.73;;;3.70;99.90;;;;;;4936741;29;20281;-91
2023/02/14 00:42:20;;;;;;;13.47;8.77;;;3.80;99.90;;;;;;4945838;29;20268;-92
2023/02/14 00:44:46;;;;;;;15.07;8.00;;;3.80;99.90;;;;;;4955192;29;20185;-91
2023/02/14 00:47:11;;;;;;;11.80;7.90;;;3.80;99.90;;;;;;4955275;29;20188;-92
2023/02/14 00:49:37;;;;;;;12.27;8.47;;;3.80;99.90;;;;;;4955334;28;20319;-91
2023/02/14 00:52:18;;;;;;;14.43;8.77;;;3.90;99.90;;;;;;4955578;29;20189;-90
2023/02/14 00:54:44;;;;;;;13.00;8.43;;;3.90;99.90;;;;;;4955671;29;20651;-93
2023/02/14 00:57:09;;;;;;;15.67;8.93;;;3.90;99.90;;;;;;4955060;28;20181;-92
2023/02/14 00:59:35;;;;;;;15.53;9.57;;;3.90;99.90;;;;;;4954984;28;20268;-92
2023/02/14 01:02:02;;;;;;;14.87;8.80;;;3.90;99.90;;;;;;4955838;28;20197;-92
2023/02/14 01:04:28;;;;;;;14.40;9.20;;;3.90;99.90;;;;;;4955888;28;20181;-89
2023/02/14 01:06:53;;;;;;;13.03;8.20;;;3.90;99.90;;;;;;4958258;29;20231;-91
2023/02/14 01:09:19;;;;;;;13.30;8.63;;;4.00;99.90;;;;;;4957537;29;20217;-92
2023/02/14 01:11:47;;;;;;;14.60;9.93;;;4.00;99.90;;;;;;4957803;29;20181;-91
2023/02/14 01:14:13;;;;;;;14.60;9.47;;;4.00;99.90;;;;;;4955506;29;20185;-91
2023/02/14 01:16:39;;;;;;;15.10;9.60;;;4.00;99.90;;;;;;4949902;29;20643;-92
2023/02/14 01:19:04;;;;;;;17.10;9.67;;;4.00;99.90;;;;;;4958776;29;20263;-91
2023/02/14 01:21:33;;;;;;;15.00;9.33;;;4.10;99.90;;;;;;4954770;29;20182;-92
2023/02/14 01:24:02;;;;;;;16.50;9.90;;;4.10;99.90;;;;;;4940196;29;20257;-92
2023/02/14 01:26:28;;;;;;;14.80;9.83;;;4.00;99.90;;;;;;4947416;29;20182;-91
2023/02/14 01:28:55;;;;;;;14.77;9.20;;;4.00;99.90;;;;;;4959779;28;20244;-92
2023/02/14 01:31:25;;;;;;;16.23;10.10;;;4.00;99.90;;;;;;4958669;29;20181;-92
2023/02/14 01:33:52;;;;;;;14.03;9.67;;;4.10;99.90;;;;;;4958006;29;20181;-93
2023/02/14 01:36:35;;;;;;;17.27;10.30;;;4.10;99.90;;;;;;4957086;29;20275;-91
2023/02/14 01:39:05;;;;;;;15.90;9.60;;;4.10;99.90;;;;;;4957502;29;20178;-91
2023/02/14 01:41:35;;;;;;;16.83;9.77;;;4.10;99.90;;;;;;4958283;29;20377;-91
2023/02/14 01:44:23;;;;;;;15.40;10.10;;;4.10;99.90;;;;;;4958636;29;20189;-91
2023/02/14 01:46:48;;;;;;;18.13;9.97;;;4.10;99.90;;;;;;4958303;29;20216;-89
2023/02/14 01:52:15;;;;;;;14.87;9.10;;;4.10;99.90;;;;;;5048648;23;20241;-81
2023/02/14 01:54:57;;;;;;;14.10;8.83;;;4.20;99.90;;;;;;4939151;29;20658;-82
2023/02/14 01:57:27;;;;;;;12.33;8.37;;;4.20;99.90;;;;;;4939072;29;20158;-82
2023/02/14 02:00:55;;;;;;;11.73;7.60;;;4.20;99.90;;;;;;4937612;29;20193;-82
2023/02/14 02:02:45;;;;;;;15.90;10.33;;;4.20;99.90;;;;;;4938728;29;20209;-83
2023/02/14 02:05:13;;;;;;;14.97;9.90;;;4.20;99.90;;;;;;4938200;29;20261;-81
2023/02/14 02:07:39;;;;;;;16.80;10.87;;;4.20;99.90;;;;;;4938851;29;20292;-82
2023/02/14 02:10:05;;;;;;;16.07;10.77;;;4.20;99.90;;;;;;4938649;29;20209;-81
2023/02/14 02:12:37;;;;;;;16.77;10.70;;;4.20;99.90;;;;;;4938625;29;20178;-82
2023/02/14 02:15:04;;;;;;;17.23;10.37;;;4.20;99.90;;;;;;4938647;29;20181;-82
2023/02/14 02:17:40;;;;;;;16.30;10.43;;;4.20;99.90;;;;;;4937346;29;20210;-81
2023/02/14 02:20:27;;;;;;;16.77;10.80;;;4.20;99.90;;;;;;4939364;29;20635;-82
2023/02/14 02:23:29;;;;;;;16.50;9.63;;;4.20;99.90;;;;;;4957721;28;20258;-82
2023/02/14 02:26:13;;;;;;;14.43;10.03;;;4.20;99.90;;;;;;4956375;29;20173;-82
2023/02/14 02:29:27;;;;;;;16.50;9.87;;;4.20;99.90;;;;;;4957579;29;20213;-82
2023/02/14 02:32:11;;;;;;;14.83;10.00;;;4.30;99.90;;;;;;4957393;28;20182;-82
2023/02/14 02:34:58;;;;;;;17.93;11.57;;;4.30;99.90;;;;;;4957499;29;20229;-82
2023/02/14 02:37:53;;;;;;;15.73;9.87;;;4.30;99.90;;;;;;4957577;29;20902;-82
2023/02/14 02:40:36;;;;;;;15.27;10.30;;;4.30;99.90;;;;;;4957213;28;20237;-82
2023/02/14 02:43:28;;;;;;;19.23;10.97;;;4.30;99.90;;;;;;4957261;28;20165;-82
2023/02/14 02:58:29;;;;;;;15.27;10.40;;;4.30;99.90;;;;;;4957055;29;20624;-81
2023/02/14 03:00:56;;;;;;;18.03;10.53;;;4.20;99.90;;;;;;4955311;29;20173;-81
2023/02/14 03:06:09;;;;;;;15.43;9.83;;;4.20;99.90;;;;;;4956721;29;20180;-82
2023/02/14 03:08:35;;;;;;;15.17;9.83;;;4.20;99.90;;;;;;4956780;28;20213;-81
2023/02/14 03:11:03;;;;;;;14.83;9.30;;;4.20;99.90;;;;;;4955371;29;20188;-82
2023/02/14 03:13:47;;;;;;;18.10;10.43;;;4.20;99.90;;;;;;4956611;28;20617;-82
2023/02/14 03:16:31;;;;;;;17.33;10.30;;;4.20;99.90;;;;;;4955410;29;20181;-82
2023/02/14 03:22:11;;;;;;;17.67;9.67;;;4.10;99.90;;;;;;4956245;29;20225;-82
2023/02/14 03:24:49;;;;;;;17.47;10.37;;;4.10;99.90;;;;;;4955335;29;20527;-82
2023/02/14 03:27:24;;;;;;;18.73;10.33;;;4.10;99.90;;;;;;4954829;28;20260;-82
2023/02/14 03:30:13;;;;;;;16.70;10.33;;;4.10;99.90;;;;;;4956283;28;20213;-83
2023/02/14 03:32:51;;;;;;;17.03;10.73;;;4.00;99.90;;;;;;4956358;28;20280;-82
2023/02/14 03:35:31;;;;;;;17.37;10.43;;;4.00;99.90;;;;;;4956242;28;20197;-82
2023/02/14 03:38:09;;;;;;;15.87;9.93;;;4.00;99.90;;;;;;4956475;28;20169;-83
2023/02/14 03:40:38;;;;;;;15.77;10.00;;;3.90;99.90;;;;;;4956124;28;20173;-83
2023/02/14 03:43:11;;;;;;;18.83;11.27;;;3.90;99.90;;;;;;4956163;28;20182;-82
2023/02/14 03:45:50;;;;;;;18.07;11.07;;;3.80;99.90;;;;;;4956388;28;20200;-82
2023/02/14 03:48:20;;;;;;;18.50;11.20;;;3.80;99.90;;;;;;4956275;28;20229;-83
2023/02/14 03:50:48;;;;;;;16.00;9.90;;;3.80;99.90;;;;;;4953943;29;20537;-82
2023/02/14 03:53:19;;;;;;;15.50;10.17;;;3.70;99.90;;;;;;4954716;29;20280;-82
2023/02/14 03:56:07;;;;;;;16.87;9.60;;;3.70;99.90;;;;;;4956109;28;20276;-83
2023/02/14 03:58:39;;;;;;;16.63;9.57;;;3.70;99.90;;;;;;4956107;28;20616;-82
2023/02/14 04:01:13;;;;;;;14.93;9.47;;;3.70;99.90;;;;;;4954575;29;20276;-82
2023/02/14 04:03:41;;;;;;;16.03;9.97;;;3.60;99.90;;;;;;4955393;28;20190;-82
2023/02/14 04:06:07;;;;;;;17.03;10.13;;;3.60;99.90;;;;;;4954350;29;20179;-83
2023/02/14 04:08:33;;;;;;;16.47;10.47;;;3.50;99.90;;;;;;4955821;28;20248;-83
2023/02/14 04:11:01;;;;;;;16.57;10.97;;;3.50;99.90;;;;;;4954432;29;20651;-82
2023/02/14 04:13:27;;;;;;;16.90;10.23;;;3.50;99.90;;;;;;4954497;29;20186;-82
2023/02/14 04:15:53;;;;;;;16.37;10.00;;;3.50;99.90;;;;;;4955853;28;20169;-82
2023/02/14 04:21:03;;;;;;;19.30;10.73;;;3.40;99.90;;;;;;4955575;29;20687;-81
2023/02/14 04:23:29;;;;;;;17.97;10.80;;;3.50;99.90;;;;;;4955709;28;20185;-82
2023/02/14 04:25:55;;;;;;;14.57;8.93;;;3.40;99.90;;;;;;4955753;29;20178;-81
2023/02/14 04:28:21;;;;;;;16.50;9.67;;;3.40;99.90;;;;;;4954056;29;20212;-81
2023/02/14 04:30:46;;;;;;;17.27;9.87;;;3.40;99.90;;;;;;4954036;29;20196;-82
2023/02/14 04:33:12;;;;;;;17.40;10.10;;;3.40;99.90;;;;;;4955435;29;20688;-82
2023/02/14 04:35:38;;;;;;;17.60;8.80;;;3.40;99.90;;;;;;4955413;28;20260;-82
2023/02/14 04:38:04;;;;;;;18.93;10.93;;;3.40;99.90;;;;;;4955574;29;20177;-82
2023/02/14 04:40:30;;;;;;;16.40;9.50;;;3.30;99.90;;;;;;4956248;28;20189;-81
2023/02/14 04:42:56;;;;;;;16.10;9.80;;;3.30;99.90;;;;;;4959384;29;20183;-81
2023/02/14 04:45:22;;;;;;;16.40;10.03;;;3.20;99.90;;;;;;4958120;29;20592;-82
2023/02/14 04:47:47;;;;;;;15.93;10.00;;;3.10;99.90;;;;;;4959187;29;20232;-81
2023/02/14 04:50:14;;;;;;;15.87;10.23;;;3.10;99.90;;;;;;4957978;28;20267;-82
2023/02/14 04:52:40;;;;;;;18.33;10.80;;;3.00;99.90;;;;;;4959114;28;20239;-82
2023/02/14 04:55:07;;;;;;;17.47;9.93;;;3.00;99.90;;;;;;4957983;29;20181;-82
2023/02/14 04:57:33;;;;;;;17.80;10.47;;;2.90;99.90;;;;;;4957827;29;20184;-82
2023/02/14 04:59:58;;;;;;;17.50;9.80;;;2.90;99.90;;;;;;4958809;28;20181;-82
2023/02/14 05:02:24;;;;;;;16.83;9.67;;;2.90;99.90;;;;;;4957725;29;20617;-82
2023/02/14 05:04:50;;;;;;;15.30;9.53;;;2.80;99.90;;;;;;4958926;28;20181;-82
2023/02/14 05:07:16;;;;;;;18.97;10.00;;;2.90;99.90;;;;;;4958841;29;20617;-81
2023/02/14 05:09:42;;;;;;;12.90;8.40;;;2.90;99.90;;;;;;4957548;29;20209;-81
2023/02/14 05:12:07;;;;;;;16.20;9.40;;;2.90;99.90;;;;;;4958176;29;20177;-82
2023/02/14 05:14:33;;;;;;;15.40;9.40;;;2.80;99.90;;;;;;4958657;29;20182;-82
2023/02/14 05:16:59;;;;;;;13.93;8.30;;;2.80;99.90;;;;;;4957546;29;20209;-82
2023/02/14 05:19:24;;;;;;;14.23;8.90;;;2.80;99.90;;;;;;4958670;29;20181;-82
2023/02/14 05:21:50;;;;;;;19.03;9.63;;;2.80;99.90;;;;;;4958805;28;20510;-83
2023/02/14 05:24:16;;;;;;;15.20;9.27;;;2.70;99.90;;;;;;4957499;29;20185;-82
2023/02/14 05:26:42;;;;;;;15.10;9.33;;;2.60;99.90;;;;;;4958655;28;20609;-82
2023/02/14 05:29:08;;;;;;;14.53;8.90;;;2.60;99.90;;;;;;4956879;29;20219;-83
2023/02/14 05:31:33;;;;;;;15.20;9.30;;;2.60;99.90;;;;;;4958470;28;20181;-83
2023/02/14 05:33:59;;;;;;;16.23;9.73;;;2.60;99.90;;;;;;4957427;29;20213;-82
2023/02/14 05:36:25;;;;;;;16.60;9.77;;;2.60;99.90;;;;;;4957370;29;20209;-82
2023/02/14 05:38:51;;;;;;;18.67;10.23;;;2.50;99.90;;;;;;4957975;28;20182;-82
2023/02/14 05:41:16;;;;;;;17.93;9.50;;;2.50;99.90;;;;;;4957850;29;20177;-82
2023/02/14 05:43:43;;;;;;;16.97;9.00;;;2.50;99.90;;;;;;4955520;29;20197;-83
2023/02/14 05:46:09;;;;;;;17.10;9.67;;;2.50;99.90;;;;;;4957126;29;20312;-82
2023/02/14 05:48:35;;;;;;;17.50;9.67;;;2.50;99.90;;;;;;4958223;28;20303;-82
2023/02/14 05:51:05;;;;;;;13.20;8.10;;;2.40;99.90;;;;;;4957608;28;20224;-83
2023/02/14 05:53:31;;;;;;;17.73;10.07;;;2.50;99.90;;;;;;4958181;28;20181;-82
2023/02/14 05:55:57;;;;;;;17.70;9.33;;;2.40;99.90;;;;;;4956550;29;20181;-82
2023/02/14 05:58:22;;;;;;;17.47;9.37;;;2.40;99.90;;;;;;4957370;28;20331;-82
2023/02/14 06:00:48;;;;;;;19.37;10.23;;;2.40;99.90;;;;;;4957890;29;20185;-83
2023/02/14 06:03:14;;;;;;;22.03;11.20;;;2.40;99.90;;;;;;4957827;29;20260;-81
2023/02/14 06:05:39;;;;;;;19.23;10.40;;;2.30;99.90;;;;;;4956154;29;20185;-82
2023/02/14 06:08:05;;;;;;;18.13;10.40;;;2.30;99.90;;;;;;4957957;29;20216;-82
2023/02/14 06:10:31;;;;;;;14.40;8.50;;;2.30;99.90;;;;;;4957924;29;20210;-82
2023/02/14 06:12:57;;;;;;;17.53;10.40;;;2.30;99.90;;;;;;4956211;29;20200;-82
2023/02/14 06:15:23;;;;;;;18.00;9.43;;;2.20;99.90;;;;;;4956335;29;20659;-82
2023/02/14 06:17:56;;;;;;;22.43;10.00;;;2.20;99.90;;;;;;4957805;28;20612;-82
2023/02/14 06:20:23;;;;;;;19.50;10.13;;;2.20;99.90;;;;;;4956462;29;20191;-82
2023/02/14 06:22:49;;;;;;;19.10;9.63;;;2.10;99.90;;;;;;4956402;29;20185;-82
2023/02/14 06:25:15;;;;;;;21.30;10.60;;;2.10;99.90;;;;;;4957712;28;20180;-82
2023/02/14 06:27:41;;;;;;;19.30;10.97;;;2.20;99.90;;;;;;4957532;28;20277;-82
2023/02/14 06:30:09;;;;;;;20.37;10.10;;;2.10;99.90;;;;;;4955959;29;20261;-83
2023/02/14 06:32:34;;;;;;;19.40;10.37;;;2.20;99.90;;;;;;4956308;29;20188;-82
2023/02/14 06:35:00;;;;;;;26.70;11.50;;;2.10;99.90;;;;;;4956006;29;20181;-82
2023/02/14 06:37:26;;;;;;;29.80;9.87;;;2.10;99.90;;;;;;4956409;29;20551;-82
2023/02/14 06:39:52;;;;;;;17.87;10.93;;;2.10;99.90;;;;;;4955934;29;20209;-81
2023/02/14 06:42:17;;;;;;;15.07;9.53;;;2.10;99.90;;;;;;4957193;29;20224;-82
2023/02/14 06:44:43;;;;;;;20.80;9.70;;;2.10;99.90;;;;;;4956751;29;20264;-82
2023/02/14 06:47:09;;;;;;;23.83;9.47;;;2.10;99.90;;;;;;4957320;29;20177;-82
2023/02/14 06:49:34;;;;;;;14.57;9.10;;;2.10;99.90;;;;;;4956840;29;20212;-82
2023/02/14 06:52:00;;;;;;;28.47;10.10;;;2.10;99.90;;;;;;4955215;29;20225;-82
2023/02/14 06:54:26;;;;;;;24.13;9.67;;;2.10;99.90;;;;;;4957070;28;20683;-82
2023/02/14 06:56:52;;;;;;;17.30;9.07;;;2.10;99.90;;;;;;4956366;29;20177;-82
2023/02/14 06:59:17;;;;;;;17.57;9.43;;;2.00;99.90;;;;;;4955160;29;20180;-81
2023/02/14 07:01:43;;;;;;;13.60;8.87;;;1.90;99.90;;;;;;4955026;28;20196;-82
2023/02/14 07:04:09;;;;;;;12.43;8.17;;;2.00;99.90;;;;;;4956069;29;20188;-82
2023/02/14 07:06:36;;;;;;;17.57;7.63;;;2.10;99.90;;;;;;4955520;29;20609;-82
2023/02/14 07:09:02;;;;;;;9.40;6.57;;;2.10;99.90;;;;;;4955180;29;20734;-80
2023/02/14 07:11:28;;;;;;;13.13;6.83;;;2.00;99.90;;;;;;4956505;28;20174;-82
2023/02/14 07:13:54;;;;;;;17.73;6.33;;;1.90;99.90;;;;;;4955233;29;20247;-82
2023/02/14 07:16:19;;;;;;;14.53;6.43;;;1.90;99.90;;;;;;4956776;29;20248;-82
2023/02/14 07:18:45;;;;;;;24.97;6.87;;;1.80;99.90;;;;;;4955488;29;20178;-82
2023/02/14 07:21:11;;;;;;;29.03;7.97;;;1.70;99.90;;;;;;4956421;28;20174;-82
2023/02/14 07:23:36;;;;;;;25.00;7.23;;;1.80;99.90;;;;;;4955159;29;20178;-83
2023/02/14 07:26:02;;;;;;;31.17;7.17;;;1.70;99.90;;;;;;4956589;29;20165;-82
2023/02/14 07:28:29;;;;;;;25.30;7.37;;;1.70;99.90;;;;;;4955611;28;20295;-82
2023/02/14 07:30:58;;;;;;;27.93;6.10;;;1.70;99.90;;;;;;4955023;29;20251;-81
2023/02/14 07:33:24;;;;;;;58.93;6.63;;;1.70;99.90;;;;;;4956269;28;20173;-82
2023/02/14 07:35:50;;;;;;;14.53;6.07;;;1.70;99.90;;;;;;4955068;29;20269;-82
2023/02/14 07:38:15;;;;;;;22.83;6.50;;;1.70;99.90;;;;;;4955978;29;20184;-81
2023/02/14 07:40:41;;;;;;;26.87;6.40;;;1.70;99.90;;;;;;4955724;29;20190;-81
2023/02/14 07:43:07;;;;;;;31.20;6.17;;;1.70;99.90;;;;;;4955829;29;20228;-81
2023/02/14 07:45:33;;;;;;;22.03;6.47;;;1.80;99.90;;;;;;4956108;28;20181;-81
2023/02/14 07:48:00;;;;;;;12.60;6.40;;;1.80;99.90;;;;;;4956111;28;20266;-82
2023/02/14 07:50:27;;;;;;;14.47;6.77;;;1.90;99.90;;;;;;4954515;29;20269;-81
2023/02/14 07:52:54;;;;;;;19.50;7.13;;;1.90;99.90;;;;;;4954736;29;20565;-81
2023/02/14 07:55:21;;;;;;;23.13;7.03;;;1.90;99.90;;;;;;4954722;29;20280;-82
2023/02/14 07:57:48;;;;;;;31.47;7.07;;;1.90;99.90;;;;;;4954910;29;20177;-82
2023/02/14 08:00:14;;;;;;;42.90;6.63;;;1.90;99.90;;;;;;4954154;29;20564;-83
2023/02/14 08:02:40;;;;;;;24.90;7.00;;;1.90;99.90;;;;;;4955939;28;20178;-83
2023/02/14 08:05:08;;;;;;;13.60;5.57;;;1.90;99.90;;;;;;4955362;29;20181;-83
2023/02/14 08:07:34;;;;;;;16.63;6.03;;;1.90;99.90;;;;;;4954572;29;20272;-82
2023/02/14 08:09:59;;;;;;;22.37;5.90;;;1.90;99.90;;;;;;4954394;29;20275;-81
2023/02/14 08:17:55;;;;;;;12.03;5.27;;;1.90;99.90;;;;;;4955632;29;20251;-82
2023/02/14 08:20:21;;;;;;;27.70;5.67;;;1.90;99.90;;;;;;4954183;29;20181;-82
2023/02/14 08:22:47;;;;;;;18.87;5.43;;;2.00;99.90;;;;;;4955678;28;20177;-81
2023/02/14 08:25:13;;;;;;;12.80;5.07;;;2.00;99.90;;;;;;4955588;29;20220;-82
2023/02/14 08:27:38;;;;;;;8.30;5.53;;;2.10;99.90;;;;;;4954392;29;20181;-82
2023/02/14 08:30:04;;;;;;;9.00;5.50;;;2.10;99.90;;;;;;4955255;29;20181;-82
2023/02/14 08:32:30;;;;;;;16.50;5.77;;;2.10;99.90;;;;;;4955091;28;20193;-81
2023/02/14 08:34:56;;;;;;;10.67;5.20;;;2.20;99.90;;;;;;4955266;29;20848;-81
2023/02/14 08:37:22;;;;;;;13.70;5.57;;;2.20;99.90;;;;;;4955472;29;20203;-82
2023/02/14 08:39:48;;;;;;;15.93;5.27;;;2.20;99.90;;;;;;4954021;29;20185;-82
2023/02/14 08:42:13;;;;;;;23.23;5.83;;;2.20;99.90;;;;;;4954122;29;20240;-82
2023/02/14 08:44:39;;;;;;;10.77;5.93;;;2.20;99.90;;;;;;4954155;29;20575;-82
2023/02/14 08:47:05;;;;;;;11.20;4.50;;;2.30;99.90;;;;;;4954230;29;20571;-83
2023/02/14 08:49:30;;;;;;;9.60;5.23;;;2.30;99.90;;;;;;4953795;29;20213;-82
2023/02/14 08:51:56;;;;;;;15.50;4.77;;;2.40;99.90;;;;;;4955250;29;20227;-82
2023/02/14 08:54:22;;;;;;;21.33;5.03;;;2.40;99.90;;;;;;4954178;29;20187;-82
2023/02/14 08:56:48;;;;;;;10.60;4.43;;;2.40;99.90;;;;;;4955400;28;20177;-82
2023/02/14 08:59:13;;;;;;;15.30;4.93;;;2.40;99.90;;;;;;4953834;29;20252;-81
2023/02/14 09:01:39;;;;;;;5.47;4.07;;;2.50;99.90;;;;;;4953657;29;20197;-81
2023/02/14 09:04:05;;;;;;;11.43;4.30;;;2.50;99.90;;;;;;4954650;29;20177;-80
2023/02/14 09:06:30;;;;;;;29.07;4.50;;;2.50;99.90;;;;;;4955323;28;20493;-81
2023/02/14 09:08:56;;;;;;;16.50;4.43;;;2.50;99.90;;;;;;4955064;29;20213;-81
2023/02/14 09:11:24;;;;;;;5.60;4.30;;;2.50;99.90;;;;;;4955094;28;20260;-81
2023/02/14 09:13:54;;;;;;;20.20;4.60;;;2.60;99.90;;;;;;4955123;28;20201;-80
2023/02/14 09:16:21;;;;;;;6.47;4.23;;;2.60;99.90;;;;;;4953835;29;20217;-81
2023/02/14 09:18:47;;;;;;;5.97;4.57;;;2.70;99.90;;;;;;4953699;29;20523;-81
2023/02/14 09:21:19;;;;;;;7.70;4.37;;;2.70;99.90;;;;;;4953805;29;20276;-81
2023/02/14 09:23:44;;;;;;;8.93;3.93;;;2.80;99.90;;;;;;4955228;28;20510;-81
2023/02/14 09:26:12;;;;;;;5.70;4.37;;;2.90;99.90;;;;;;4956567;28;20265;-81
2023/02/14 09:28:38;;;;;;;6.37;4.50;;;2.90;99.90;;;;;;4958580;28;20205;-81
2023/02/14 09:31:14;;;;;;;6.37;4.47;;;2.90;99.90;;;;;;4958361;28;20241;-81
2023/02/14 09:36:24;;;;;;;6.30;4.37;;;3.00;99.90;;;;;;4958849;29;20624;-81
2023/02/14 09:38:49;;;;;;;5.43;4.03;;;3.00;99.90;;;;;;4957212;29;20181;-81
2023/02/14 09:41:34;;;;;;;8.00;4.30;;;3.10;99.90;;;;;;4958268;29;20177;-81
2023/02/14 09:44:33;;;;;;;5.43;4.33;;;3.20;99.90;;;;;;4957225;29;20300;-82
2023/02/14 09:47:10;;;;;;;7.23;4.33;;;3.20;99.90;;;;;;4972857;28;20505;-81
2023/02/14 09:49:38;;;;;;;14.97;4.20;;;3.20;99.90;;;;;;4956676;29;20212;-81
2023/02/14 09:52:09;;;;;;;10.93;3.90;;;3.30;99.90;;;;;;4957995;28;20284;-81
2023/02/14 09:54:36;;;;;;;18.83;4.30;;;3.30;99.90;;;;;;4956898;29;20181;-81
2023/02/14 09:57:14;;;;;;;14.43;4.33;;;3.30;99.90;;;;;;4958361;28;20210;-82
2023/02/14 09:59:53;;;;;;;20.37;4.70;;;3.30;99.90;;;;;;4958063;28;20205;-82
2023/02/14 10:02:41;;;;;;;20.17;4.93;;;3.30;99.90;;;;;;4957806;28;20181;-82
2023/02/14 10:05:25;;;;;;;34.77;4.67;;;3.50;99.90;;;;;;4956522;29;20329;-81
2023/02/14 10:08:16;;;;;;;22.93;4.50;;;3.50;99.90;;;;;;4956695;29;20169;-81
2023/02/14 10:11:01;;;;;;;6.97;4.67;;;3.50;99.90;;;;;;4957470;28;20185;-82
2023/02/14 10:13:50;;;;;;;35.83;4.63;;;3.50;99.90;;;;;;4956598;29;20272;-82
2023/02/14 10:16:42;;;;;;;18.60;5.07;;;3.60;99.90;;;;;;4956564;29;20220;-81
2023/02/14 10:19:33;;;;;;;6.23;4.70;;;3.60;99.90;;;;;;4956061;29;20177;-81
2023/02/14 10:22:13;;;;;;;20.87;5.10;;;3.70;99.90;;;;;;4957642;28;20170;-82
2023/02/14 10:25:05;;;;;;;40.23;5.33;;;3.80;99.90;;;;;;4957577;28;20161;-82
2023/02/14 10:27:41;;;;;;;12.87;5.60;;;3.90;99.90;;;;;;4957649;28;20253;-81
2023/02/14 10:30:17;;;;;;;9.63;5.67;;;3.90;99.90;;;;;;4956257;29;20687;-82
2023/02/14 10:33:07;;;;;;;11.13;5.77;;;4.00;99.90;;;;;;4955821;29;20181;-81
2023/02/14 10:35:54;;;;;;;46.67;5.97;;;4.10;99.90;;;;;;4956162;29;20510;-81
2023/02/14 10:38:23;;;;;;;30.77;6.80;;;4.20;99.90;;;;;;4955178;28;20205;-82
2023/02/14 10:40:51;;;;;;;41.17;6.90;;;4.20;99.90;;;;;;4955960;29;20216;-82
2023/02/14 10:43:25;;;;;;;27.10;6.03;;;4.20;99.90;;;;;;4955854;29;20193;-81
2023/02/14 10:46:03;;;;;;;21.47;6.40;;;4.30;99.90;;;;;;4955943;29;20181;-82
2023/02/14 10:49:07;;;;;;;13.27;6.47;;;4.40;99.90;;;;;;4956983;29;20209;-81
2023/02/14 10:51:54;;;;;;;17.77;6.33;;;4.40;99.90;;;;;;4960950;28;20228;-81
2023/02/14 10:54:23;;;;;;;18.10;7.90;;;4.50;99.90;;;;;;4954887;28;20323;-80
2023/02/14 10:57:13;;;;;;;10.13;7.27;;;4.60;99.90;;;;;;4941034;28;20241;-81
2023/02/14 10:59:48;;;;;;;13.23;7.70;;;4.80;99.90;;;;;;4952406;29;20582;-81
2023/02/14 11:02:17;;;;;;;11.13;7.33;;;4.80;99.90;;;;;;4960427;28;20311;-81
2023/02/14 11:04:45;;;;;;;11.27;7.13;;;4.90;99.90;;;;;;4955292;29;20555;-81
2023/02/14 11:07:20;;;;;;;11.37;7.47;;;5.00;99.90;;;;;;4955636;29;20185;-81
2023/02/14 11:09:46;;;;;;;10.13;7.13;;;5.20;99.90;;;;;;4955563;29;20271;-81
2023/02/14 11:12:40;;;;;;;10.57;7.07;;;5.20;99.90;;;;;;4955866;29;20218;-81
2023/02/14 11:15:31;;;;;;;10.80;7.27;;;5.40;99.90;;;;;;4956834;28;20517;-81
2023/02/14 11:18:23;;;;;;;12.43;7.17;;;5.60;99.90;;;;;;4956500;28;20252;-81
2023/02/14 11:21:13;;;;;;;11.87;7.30;;;5.70;99.90;;;;;;4956358;28;20223;-81
2023/02/14 11:23:47;;;;;;;11.67;7.07;;;5.90;99.90;;;;;;4955437;29;20184;-81
2023/02/14 11:26:30;;;;;;;9.73;7.13;;;6.20;99.90;;;;;;4955454;29;20173;-82
2023/02/14 11:29:03;;;;;;;9.93;6.93;;;6.40;99.90;;;;;;4956457;28;20209;-82
2023/02/14 11:31:32;;;;;;;11.60;7.70;;;6.50;99.90;;;;;;4956405;28;20161;-82
2023/02/14 11:33:58;;;;;;;9.33;6.77;;;6.70;99.90;;;;;;4954861;29;20570;-81
2023/02/14 11:36:25;;;;;;;10.23;7.00;;;6.80;99.90;;;;;;4956459;28;20614;-82
2023/02/14 11:38:59;;;;;;;10.17;6.93;;;6.90;99.90;;;;;;4956475;28;20158;-82
2023/02/14 11:41:25;;;;;;;10.93;6.27;;;7.00;99.90;;;;;;4956365;28;20172;-81
2023/02/14 11:43:52;;;;;;;9.77;7.00;;;7.10;99.90;;;;;;4954878;29;20193;-81
2023/02/14 11:46:21;;;;;;;10.03;6.93;;;7.30;99.90;;;;;;4954987;29;20571;-81
2023/02/14 11:49:06;;;;;;;10.20;6.70;;;7.30;99.90;;;;;;4955773;28;20212;-81
2023/02/14 11:51:42;;;;;;;9.47;6.30;;;7.40;99.90;;;;;;4954664;29;20228;-81
2023/02/14 11:54:26;;;;;;;7.90;5.70;;;7.60;99.90;;;;;;4956033;28;20173;-81
2023/02/14 11:57:30;;;;;;;8.27;5.90;;;7.60;99.90;;;;;;4954427;29;20180;-81
2023/02/14 11:59:58;;;;;;;7.87;5.60;;;7.70;99.90;;;;;;4915413;28;20188;-81
2023/02/14 12:02:39;;;;;;;8.73;6.10;;;7.90;99.90;;;;;;4955515;28;20169;-81
2023/02/14 12:05:25;;;;;;;9.13;5.97;;;8.00;99.90;;;;;;4954123;29;20189;-82
2023/02/14 12:08:03;;;;;;;8.67;6.10;;;8.00;99.90;;;;;;4970295;28;20192;-81
2023/02/14 12:10:30;;;;;;;7.83;5.93;;;8.10;99.90;;;;;;4954696;29;20200;-81
2023/02/14 12:13:21;;;;;;;8.10;5.33;;;8.20;99.90;;;;;;4955656;28;20192;-82
2023/02/14 12:15:54;;;;;;;8.03;5.07;;;8.30;99.90;;;;;;4955832;28;20197;-81
2023/02/14 12:18:38;;;;;;;8.33;5.57;;;8.30;99.90;;;;;;4954401;29;20233;-82
2023/02/14 12:21:26;;;;;;;8.38;5.32;;;8.40;99.90;;;;;;4955395;29;20173;-81
2023/02/14 12:24:16;;;;;;;8.30;5.47;;;8.40;99.90;;;;;;4955501;28;20192;-81
2023/02/14 12:26:49;;;;;;;7.33;5.17;;;8.60;99.90;;;;;;4954374;29;20181;-81
2023/02/14 12:29:35;;;;;;;6.75;5.00;;;8.60;99.90;;;;;;4954067;29;20588;-81
2023/02/14 12:32:29;;;;;;;6.55;4.65;;;8.70;99.90;;;;;;4953596;29;20181;-82
2023/02/14 12:35:12;;;;;;;7.10;5.13;;;8.70;99.90;;;;;;4955676;28;20228;-82
2023/02/14 12:38:06;;;;;;;7.28;4.90;;;8.70;99.90;;;;;;4955425;28;20169;-81
2023/02/14 12:41:03;;;;;;;8.65;5.00;;;8.80;99.90;;;;;;4954018;29;20601;-81
2023/02/14 12:43:54;;;;;;;8.45;5.03;;;9.00;99.90;;;;;;4954113;29;20293;-82
2023/02/14 12:46:40;;;;;;;7.25;4.75;;;9.10;99.90;;;;;;4955305;28;20180;-82
2023/02/14 12:49:41;;;;;;;6.47;4.85;;;9.20;99.90;;;;;;4953568;29;20209;-81
2023/02/14 12:52:31;;;;;;;7.50;4.60;;;9.30;99.90;;;;;;4955444;28;20185;-82
2023/02/14 12:55:17;;;;;;;7.15;4.70;;;9.40;99.90;;;;;;4953934;29;20248;-81
2023/02/14 12:57:51;;;;;;;6.70;4.78;;;9.50;99.90;;;;;;4953652;29;20231;-82
2023/02/14 13:00:38;;;;;;;7.80;4.82;;;9.50;99.90;;;;;;4955459;28;20169;-82
2023/02/14 13:03:41;;;;;;;6.53;4.70;;;9.50;99.90;;;;;;4957532;29;20188;-82
2023/02/14 13:06:32;;;;;;;5.75;4.35;;;9.60;99.90;;;;;;4894997;28;20196;-82
2023/02/14 13:09:07;;;;;;;7.40;4.60;;;9.60;99.90;;;;;;4958902;28;20204;-82
2023/02/14 13:11:44;;;;;;;7.85;4.90;;;9.70;99.90;;;;;;4957367;29;20189;-82
2023/02/14 13:14:35;;;;;;;9.65;4.68;;;9.70;99.90;;;;;;4958892;29;20662;-82
2023/02/14 13:17:19;;;;;;;5.68;4.40;;;9.80;99.90;;;;;;4957790;29;20605;-83
2023/02/14 13:19:47;;;;;;;6.35;4.47;;;9.90;99.90;;;;;;4958418;29;20162;-82
2023/02/14 13:22:18;;;;;;;6.68;4.35;;;9.90;99.90;;;;;;4957414;29;20219;-82
2023/02/14 13:24:48;;;;;;;7.68;5.00;;;10.00;99.90;;;;;;4958896;28;20723;-83
2023/02/14 13:27:27;;;;;;;5.88;4.47;;;10.00;99.90;;;;;;4957503;29;20185;-81
2023/02/14 13:30:03;;;;;;;7.80;4.63;;;10.10;99.90;;;;;;4956993;29;20667;-83
2023/02/14 13:32:38;;;;;;;7.95;4.40;;;10.10;99.90;;;;;;4958690;28;20177;-82
2023/02/14 13:35:05;;;;;;;6.20;4.35;;;10.10;99.90;;;;;;4958675;28;20613;-82
2023/02/14 13:37:32;;;;;;;5.57;3.90;;;10.30;99.90;;;;;;4958625;28;20177;-84
2023/02/14 13:40:08;;;;;;;5.38;4.10;;;10.30;99.90;;;;;;4958390;28;20166;-82
2023/02/14 13:42:46;;;;;;;6.95;3.90;;;10.30;99.90;;;;;;4958238;28;20184;-83
2023/02/14 13:45:51;;;;;;;6.28;4.03;;;10.40;99.90;;;;;;4957076;29;20273;-81